Time;durP1;ratioP1;P1;durP2;ratioP2;P2;SDS_P1;SDS_P2;PMS_P1;PMS_P2;Temp;Humidity;BMP_temperature;BMP_pressure;BME280_temperature;BME280_humidity;BME280_pressure;Samples;Min_cycle;Max_cycle;Signal;HPM_P1;HPM_P2
2022/10/02 00:02:24;;;;;;;;;;;12.50;99.90;;;;;;6236137;23;20016;-85
2022/10/02 00:05:02;;;;;;;3.33;0.82;;;12.50;99.90;;;;;;6211152;23;19911;-84
2022/10/02 00:07:37;;;;;;;2.47;0.85;;;12.50;99.90;;;;;;6210960;23;20045;-85
2022/10/02 00:10:13;;;;;;;4.07;1.10;;;12.50;99.90;;;;;;6234709;23;19997;-84
2022/10/02 00:12:39;;;;;;;4.22;0.60;;;12.40;99.90;;;;;;6210082;23;19989;-85
2022/10/02 00:15:17;;;;;;;3.47;0.55;;;12.40;99.90;;;;;;6210289;23;20036;-85
2022/10/02 00:17:50;;;;;;;3.83;1.25;;;12.40;99.90;;;;;;6235057;23;20019;-84
2022/10/02 00:20:22;;;;;;;2.38;1.15;;;12.40;99.90;;;;;;6210012;23;20001;-84
2022/10/02 00:22:55;;;;;;;0.65;0.65;;;12.40;99.90;;;;;;6210574;23;19993;-85
2022/10/02 00:25:34;;;;;;;1.40;0.50;;;12.40;99.90;;;;;;6210988;23;20013;-83
2022/10/02 00:28:13;;;;;;;2.53;0.60;;;12.40;99.90;;;;;;6210987;23;20001;-85
2022/10/02 00:31:14;;;;;;;2.20;0.60;;;12.40;99.90;;;;;;6209376;23;20016;-84
2022/10/02 00:33:46;;;;;;;3.17;0.90;;;12.40;99.90;;;;;;6189998;23;20068;-84
2022/10/02 00:36:18;;;;;;;2.77;0.97;;;12.30;99.90;;;;;;6210119;23;19990;-84
2022/10/02 00:38:59;;;;;;;2.72;0.90;;;12.20;99.90;;;;;;6210340;23;20005;-85
2022/10/02 00:41:36;;;;;;;3.08;0.95;;;12.10;99.90;;;;;;6225819;22;20020;-85
2022/10/02 00:44:40;;;;;;;1.00;0.52;;;12.00;99.90;;;;;;6221775;23;20005;-85
2022/10/02 00:47:30;;;;;;;1.80;1.05;;;12.00;99.90;;;;;;6179132;23;20515;-85
2022/10/02 00:50:16;;;;;;;3.67;0.85;;;12.00;99.90;;;;;;6196637;23;19993;-84
2022/10/02 00:53:07;;;;;;;3.08;0.90;;;11.90;99.90;;;;;;6207747;23;20004;-84
2022/10/02 00:55:51;;;;;;;3.95;1.15;;;11.90;99.90;;;;;;6209908;23;20001;-84
2022/10/02 00:58:34;;;;;;;1.10;0.70;;;11.80;99.90;;;;;;6209296;23;20037;-85
2022/10/02 01:01:18;;;;;;;3.80;0.95;;;11.80;99.90;;;;;;6234540;22;19993;-84
2022/10/02 01:03:55;;;;;;;3.40;0.82;;;11.90;99.90;;;;;;6237794;22;19997;-84
2022/10/02 01:06:26;;;;;;;0.63;0.57;;;11.80;99.90;;;;;;6211951;23;20005;-84
2022/10/02 01:08:52;;;;;;;3.08;0.90;;;11.80;99.90;;;;;;6210072;23;20006;-84
2022/10/02 01:11:20;;;;;;;0.93;0.68;;;11.80;99.90;;;;;;6210426;23;20021;-86
2022/10/02 01:13:47;;;;;;;1.67;0.85;;;11.80;99.90;;;;;;6211429;23;20012;-84
2022/10/02 01:16:13;;;;;;;1.38;0.68;;;11.80;99.90;;;;;;6235738;23;20009;-85
2022/10/02 01:18:40;;;;;;;1.10;0.73;;;11.80;99.90;;;;;;6210621;23;20001;-84
2022/10/02 01:21:55;;;;;;;0.50;0.50;;;11.80;99.90;;;;;;6209168;23;20001;-85
2022/10/02 01:24:28;;;;;;;2.70;0.65;;;11.80;99.90;;;;;;6205777;23;20005;-85
2022/10/02 01:26:54;;;;;;;1.20;0.70;;;11.80;99.90;;;;;;6199665;23;19997;-85
2022/10/02 01:29:20;;;;;;;2.28;0.88;;;11.80;99.90;;;;;;6190831;23;20151;-85
2022/10/02 01:31:45;;;;;;;2.50;0.95;;;11.80;99.90;;;;;;6194887;23;20008;-85
2022/10/02 01:34:11;;;;;;;3.42;1.25;;;11.90;99.90;;;;;;6195229;23;20087;-85
2022/10/02 01:36:40;;;;;;;5.80;1.45;;;11.80;99.90;;;;;;6221083;23;20003;-85
2022/10/02 01:39:05;;;;;;;7.07;2.75;;;11.80;99.90;;;;;;6224450;23;20028;-86
2022/10/02 01:41:40;;;;;;;3.25;1.40;;;11.80;99.90;;;;;;6221700;23;20011;-85
2022/10/02 01:44:06;;;;;;;3.33;1.27;;;11.80;99.90;;;;;;6194630;23;20005;-85
2022/10/02 01:46:55;;;;;;;2.00;1.13;;;11.80;99.90;;;;;;6221909;23;20035;-85
2022/10/02 01:49:38;;;;;;;1.85;0.98;;;11.80;99.90;;;;;;6221478;23;20017;-84
2022/10/02 01:52:23;;;;;;;2.03;0.90;;;11.80;99.90;;;;;;6194628;23;20004;-84
2022/10/02 01:55:13;;;;;;;1.27;0.60;;;11.80;99.90;;;;;;6194179;23;20005;-84
2022/10/02 01:57:48;;;;;;;1.35;0.60;;;11.80;99.90;;;;;;6194414;23;20000;-85
2022/10/02 02:00:24;;;;;;;1.95;0.73;;;11.80;99.90;;;;;;6221217;23;20417;-84
2022/10/02 02:03:21;;;;;;;1.75;0.70;;;11.70;99.90;;;;;;6221616;23;20030;-84
2022/10/02 02:05:51;;;;;;;0.60;0.60;;;11.80;99.90;;;;;;6229745;23;20038;-84
2022/10/02 02:08:31;;;;;;;0.93;0.75;;;11.70;99.90;;;;;;6206847;23;20004;-84
2022/10/02 02:11:09;;;;;;;3.60;0.88;;;11.70;99.90;;;;;;6238389;23;20016;-84
2022/10/02 02:14:18;;;;;;;6.30;1.10;;;11.70;99.90;;;;;;6226015;23;20005;-84
2022/10/02 02:16:48;;;;;;;1.65;0.95;;;11.70;99.90;;;;;;6127658;23;20002;-85
2022/10/02 02:19:36;;;;;;;2.63;0.85;;;11.80;99.90;;;;;;6209640;22;20076;-85
2022/10/02 02:22:15;;;;;;;3.92;0.90;;;11.70;99.90;;;;;;6218528;23;20044;-85
2022/10/02 02:24:43;;;;;;;1.35;0.63;;;11.70;99.90;;;;;;6192307;23;20007;-85
2022/10/02 02:27:16;;;;;;;5.00;0.75;;;11.70;99.90;;;;;;6192567;23;20428;-85
2022/10/02 02:29:45;;;;;;;1.52;0.70;;;11.80;99.90;;;;;;6219450;23;20019;-85
2022/10/02 02:32:16;;;;;;;1.88;0.70;;;11.80;99.90;;;;;;6177559;23;20081;-77
2022/10/02 02:34:46;;;;;;;2.58;0.73;;;11.80;99.90;;;;;;6167027;23;20060;-78
2022/10/02 02:37:17;;;;;;;2.35;0.60;;;11.80;99.90;;;;;;6164676;23;20040;-81
2022/10/02 02:39:54;;;;;;;3.13;0.77;;;11.80;99.90;;;;;;6160355;23;20006;-80
2022/10/02 02:42:23;;;;;;;3.33;0.70;;;11.80;99.90;;;;;;6161814;23;20012;-81
2022/10/02 02:45:12;;;;;;;1.75;0.57;;;11.90;99.90;;;;;;6161808;23;20076;-80
2022/10/02 02:47:44;;;;;;;1.05;0.60;;;11.90;99.90;;;;;;6160836;23;20044;-80
2022/10/02 02:50:16;;;;;;;1.88;0.70;;;11.90;99.90;;;;;;6162099;23;20036;-80
2022/10/02 02:52:53;;;;;;;1.70;0.80;;;11.90;99.90;;;;;;6164450;23;19997;-79
2022/10/02 02:55:36;;;;;;;2.33;0.57;;;11.90;99.90;;;;;;6187568;23;20016;-80
2022/10/02 02:58:09;;;;;;;;;;;11.90;99.90;;;;;;6161726;23;20021;-79
2022/10/02 03:00:35;;;;;;;2.15;0.60;;;11.90;99.90;;;;;;6172103;23;19920;-76
2022/10/02 03:03:00;;;;;;;4.38;1.00;;;11.90;99.90;;;;;;6171765;23;20029;-81
2022/10/02 03:05:28;;;;;;;0.80;0.43;;;11.90;99.90;;;;;;6160104;23;20352;-80
2022/10/02 03:07:58;;;;;;;1.75;0.50;;;12.00;99.90;;;;;;6192808;23;20029;-79
2022/10/02 03:10:34;;;;;;;3.13;0.60;;;12.00;99.90;;;;;;6159268;23;20033;-80
2022/10/02 03:13:38;;;;;;;1.73;0.73;;;12.00;99.90;;;;;;6159233;23;20341;-80
2022/10/02 03:16:13;;;;;;;3.97;0.70;;;12.00;99.90;;;;;;6163806;23;20021;-78
2022/10/02 03:18:57;;;;;;;1.20;0.68;;;12.00;99.90;;;;;;6169093;23;20029;-80
2022/10/02 03:21:34;;;;;;;3.83;0.90;;;12.00;99.90;;;;;;6162565;23;20006;-81
2022/10/02 03:24:32;;;;;;;4.22;0.70;;;12.00;99.90;;;;;;6167016;23;20032;-79
2022/10/02 03:27:25;;;;;;;1.75;0.70;;;12.00;99.90;;;;;;6172848;23;19996;-79
2022/10/02 03:30:05;;;;;;;3.55;0.60;;;12.00;99.90;;;;;;6166294;23;20020;-81
2022/10/02 03:32:32;;;;;;;1.10;0.40;;;12.00;99.90;;;;;;6192172;23;20010;-79
2022/10/02 03:34:59;;;;;;;2.33;0.70;;;12.00;99.90;;;;;;6230864;23;20054;-81
2022/10/02 03:37:26;;;;;;;2.72;1.20;;;12.00;99.90;;;;;;6225824;23;20051;-79
2022/10/02 03:39:52;;;;;;;1.23;0.60;;;12.00;99.90;;;;;;6221226;23;20382;-81
2022/10/02 03:42:25;;;;;;;1.98;0.70;;;12.00;99.90;;;;;;6224174;23;20028;-81
2022/10/02 03:44:51;;;;;;;1.52;0.55;;;12.00;99.90;;;;;;6195119;23;20047;-80
2022/10/02 03:47:16;;;;;;;1.17;0.60;;;12.00;99.90;;;;;;6195792;23;20009;-76
2022/10/02 03:49:42;;;;;;;0.85;0.47;;;12.00;99.90;;;;;;6222561;23;20447;-81
2022/10/02 03:52:18;;;;;;;1.45;0.55;;;12.00;99.90;;;;;;6208743;23;20014;-77
2022/10/02 03:54:44;;;;;;;0.80;0.60;;;12.00;99.90;;;;;;6237757;23;20008;-81
2022/10/02 03:57:19;;;;;;;1.77;0.50;;;11.90;99.90;;;;;;6224781;23;20008;-81
2022/10/02 04:00:11;;;;;;;0.80;0.70;;;12.00;99.90;;;;;;6196871;23;20001;-78
2022/10/02 04:02:39;;;;;;;2.97;0.68;;;11.90;99.90;;;;;;6224432;23;19997;-80
2022/10/02 04:05:08;;;;;;;3.55;1.10;;;12.00;99.90;;;;;;6222145;23;20025;-78
2022/10/02 04:07:40;;;;;;;2.30;0.90;;;12.00;99.90;;;;;;6221475;23;19997;-80
2022/10/02 04:10:43;;;;;;;2.05;0.70;;;12.00;99.90;;;;;;6220749;23;20001;-78
2022/10/02 04:13:56;;;;;;;2.70;1.13;;;12.00;99.90;;;;;;6220947;23;19997;-78
2022/10/02 04:16:39;;;;;;;2.15;0.70;;;12.00;99.90;;;;;;6130831;23;20034;-78
2022/10/02 04:19:36;;;;;;;2.72;0.80;;;12.00;99.90;;;;;;6218379;23;20255;-80
2022/10/02 04:22:33;;;;;;;0.68;0.60;;;12.00;99.90;;;;;;6220827;23;20491;-80
2022/10/02 04:25:11;;;;;;;2.67;0.93;;;12.00;99.90;;;;;;6220569;23;20011;-80
2022/10/02 04:27:47;;;;;;;3.42;0.70;;;12.00;99.90;;;;;;6192882;23;20020;-80
2022/10/02 04:30:18;;;;;;;2.78;0.75;;;12.10;99.90;;;;;;6192918;23;20008;-81
2022/10/02 04:32:44;;;;;;;3.45;0.77;;;12.00;99.90;;;;;;6222302;23;20071;-79
2022/10/02 04:35:23;;;;;;;3.65;0.80;;;12.00;99.90;;;;;;6222396;23;20035;-80
2022/10/02 04:38:14;;;;;;;1.33;0.65;;;12.00;99.90;;;;;;6222373;23;20012;-80
2022/10/02 04:41:11;;;;;;;2.03;0.90;;;12.10;99.90;;;;;;6154539;23;20064;-80
2022/10/02 04:43:55;;;;;;;3.03;0.63;;;12.00;99.90;;;;;;6223078;23;20031;-80
2022/10/02 04:47:06;;;;;;;2.25;0.70;;;12.10;99.90;;;;;;6225973;23;20427;-76
2022/10/02 04:49:49;;;;;;;2.47;1.00;;;12.10;99.90;;;;;;6232731;23;20000;-80
2022/10/02 04:52:26;;;;;;;4.65;1.05;;;12.10;99.90;;;;;;6238029;23;19997;-78
2022/10/02 04:55:16;;;;;;;4.82;0.90;;;12.10;99.90;;;;;;6234569;23;20055;-81
2022/10/02 04:58:13;;;;;;;1.73;0.65;;;12.20;99.90;;;;;;6226588;23;19997;-81
2022/10/02 05:01:11;;;;;;;2.35;0.70;;;12.10;99.90;;;;;;6199358;23;20032;-81
2022/10/02 05:04:01;;;;;;;1.95;0.70;;;12.10;99.90;;;;;;6200972;23;20009;-81
2022/10/02 05:06:57;;;;;;;2.92;0.93;;;12.10;99.90;;;;;;6225910;23;20396;-78
2022/10/02 05:09:36;;;;;;;1.50;0.70;;;12.20;99.90;;;;;;6202036;23;20071;-80
2022/10/02 05:12:23;;;;;;;1.45;1.25;;;12.20;99.90;;;;;;6229496;23;20005;-79
2022/10/02 05:15:10;;;;;;;0.35;0.35;;;12.10;99.90;;;;;;6231886;23;20460;-80
2022/10/02 05:17:35;;;;;;;0.80;0.50;;;12.10;99.90;;;;;;6200625;23;20009;-80
2022/10/02 05:20:35;;;;;;;1.42;0.93;;;12.10;99.90;;;;;;6224034;23;20015;-79
2022/10/02 05:23:01;;;;;;;4.55;0.85;;;12.10;99.90;;;;;;6222071;23;20055;-80
2022/10/02 05:25:48;;;;;;;1.67;0.70;;;12.20;99.90;;;;;;6221331;23;20000;-79
2022/10/02 05:28:31;;;;;;;1.85;0.60;;;12.10;99.90;;;;;;6221443;23;20388;-80
2022/10/02 05:31:33;;;;;;;3.90;0.90;;;12.20;99.90;;;;;;6221130;23;20405;-80
2022/10/02 05:34:15;;;;;;;1.25;0.80;;;12.20;99.90;;;;;;6221194;23;20402;-80
2022/10/02 05:36:54;;;;;;;1.70;0.80;;;12.20;99.90;;;;;;6220860;23;19997;-81
2022/10/02 05:39:26;;;;;;;2.80;0.68;;;12.20;99.90;;;;;;6194615;23;20011;-80
2022/10/02 05:42:04;;;;;;;2.83;0.93;;;12.30;99.90;;;;;;6226579;23;20523;-81
2022/10/02 05:44:52;;;;;;;1.88;0.65;;;12.30;99.90;;;;;;6195625;23;20008;-81
2022/10/02 05:47:29;;;;;;;3.80;0.80;;;12.30;99.90;;;;;;6221472;23;20391;-81
2022/10/02 05:50:06;;;;;;;2.03;0.68;;;12.30;99.90;;;;;;6198453;23;20051;-81
2022/10/02 05:52:39;;;;;;;2.45;0.75;;;12.30;99.90;;;;;;6222893;23;20420;-81
2022/10/02 05:55:30;;;;;;;1.35;0.55;;;12.30;99.90;;;;;;6223795;23;20047;-81
2022/10/02 05:58:05;;;;;;;0.75;0.65;;;12.30;99.90;;;;;;6220919;23;20011;-81
2022/10/02 06:00:44;;;;;;;6.50;1.38;;;12.30;99.90;;;;;;6221029;23;20028;-81
2022/10/02 06:03:37;;;;;;;3.08;1.05;;;12.30;99.90;;;;;;6222094;23;20011;-80
2022/10/02 06:06:29;;;;;;;6.45;1.00;;;12.40;99.90;;;;;;6224505;23;20005;-81
2022/10/02 06:09:02;;;;;;;4.35;1.08;;;12.30;99.90;;;;;;6220829;23;20024;-81
2022/10/02 06:11:45;;;;;;;2.75;1.23;;;12.40;99.90;;;;;;6221525;23;20000;-81
2022/10/02 06:14:14;;;;;;;2.00;1.00;;;12.40;99.90;;;;;;6223539;23;19997;-81
2022/10/02 06:16:50;;;;;;;4.40;1.35;;;12.50;99.90;;;;;;6220968;23;20035;-80
2022/10/02 06:19:28;;;;;;;5.95;1.45;;;12.50;99.90;;;;;;6194100;23;20058;-81
2022/10/02 06:22:10;;;;;;;4.93;1.73;;;12.50;99.90;;;;;;6221441;23;20422;-81
2022/10/02 06:24:43;;;;;;;2.53;1.40;;;12.60;99.90;;;;;;6223979;23;20013;-81
2022/10/02 06:27:46;;;;;;;2.95;1.20;;;12.60;99.90;;;;;;6221013;23;20027;-79
2022/10/02 06:30:15;;;;;;;4.78;1.50;;;12.60;99.90;;;;;;6222131;23;20019;-79
2022/10/02 06:32:54;;;;;;;5.70;1.40;;;12.60;99.90;;;;;;6220975;23;20355;-80
2022/10/02 06:35:59;;;;;;;2.75;1.20;;;12.60;99.90;;;;;;6224296;23;20411;-81
2022/10/02 06:38:49;;;;;;;3.85;1.20;;;12.70;99.90;;;;;;6217787;23;20000;-81
2022/10/02 06:41:30;;;;;;;3.50;1.13;;;12.60;99.90;;;;;;6200466;23;20312;-81
2022/10/02 06:44:07;;;;;;;7.47;1.42;;;12.60;99.90;;;;;;6229281;23;19996;-78
2022/10/02 06:46:48;;;;;;;3.97;1.30;;;12.60;99.90;;;;;;6238011;23;19991;-80
2022/10/02 06:49:48;;;;;;;3.42;1.40;;;12.60;99.90;;;;;;6228851;23;20047;-80
2022/10/02 06:52:47;;;;;;;4.85;1.40;;;12.60;99.90;;;;;;6227902;23;19996;-80
2022/10/02 06:55:29;;;;;;;4.35;1.48;;;12.60;99.90;;;;;;6226923;23;20016;-77
2022/10/02 06:58:25;;;;;;;2.80;1.07;;;12.60;99.90;;;;;;6225573;23;20412;-80
2022/10/02 07:01:28;;;;;;;4.03;1.20;;;12.60;99.90;;;;;;6199051;23;20028;-80
2022/10/02 07:04:12;;;;;;;4.50;1.42;;;12.60;99.90;;;;;;6220512;23;20419;-81
2022/10/02 07:06:46;;;;;;;4.15;1.23;;;12.70;99.90;;;;;;6223779;23;20004;-80
2022/10/02 07:09:35;;;;;;;3.25;1.27;;;12.70;99.90;;;;;;6225843;23;20054;-77
2022/10/02 07:12:07;;;;;;;2.78;1.20;;;12.70;99.90;;;;;;6236659;23;20068;-80
2022/10/02 07:15:08;;;;;;;4.85;1.40;;;12.80;99.90;;;;;;6234336;23;19996;-79
2022/10/02 07:17:56;;;;;;;5.43;1.25;;;12.80;99.90;;;;;;6229980;23;20052;-81
2022/10/02 07:20:44;;;;;;;4.15;1.60;;;12.90;99.90;;;;;;6224984;23;20020;-80
2022/10/02 07:23:12;;;;;;;2.72;1.48;;;12.90;99.90;;;;;;6238222;23;20126;-78
2022/10/02 07:26:01;;;;;;;3.75;1.60;;;13.00;99.90;;;;;;6238194;23;20000;-79
2022/10/02 07:28:42;;;;;;;4.97;1.30;;;13.10;99.90;;;;;;6206550;23;20004;-80
2022/10/02 07:31:20;;;;;;;3.33;1.60;;;13.10;99.90;;;;;;6232603;23;20008;-78
2022/10/02 07:34:13;;;;;;;3.22;1.30;;;13.10;99.90;;;;;;6207154;22;20048;-77
2022/10/02 07:36:57;;;;;;;2.53;1.13;;;13.10;99.90;;;;;;6240849;22;19997;-78
2022/10/02 07:39:34;;;;;;;3.25;1.20;;;13.10;99.90;;;;;;6240290;22;20043;-78
2022/10/02 07:42:02;;;;;;;3.83;1.15;;;13.10;99.90;;;;;;6224759;23;20012;-81
2022/10/02 07:44:28;;;;;;;3.00;1.40;;;13.10;99.90;;;;;;6226495;23;20005;-80
2022/10/02 07:47:12;;;;;;;7.13;1.30;;;13.10;99.90;;;;;;6196128;23;20013;-81
2022/10/02 07:49:46;;;;;;;2.30;1.23;;;13.10;99.90;;;;;;6221814;23;20001;-81
2022/10/02 07:52:44;;;;;;;3.58;1.40;;;13.10;99.90;;;;;;6221534;23;20082;-81
2022/10/02 07:55:19;;;;;;;4.63;1.25;;;13.20;99.90;;;;;;6223007;22;20017;-81
2022/10/02 07:57:58;;;;;;;6.47;1.10;;;13.30;99.90;;;;;;6221143;23;20027;-81
2022/10/02 08:00:25;;;;;;;7.32;1.75;;;13.30;99.90;;;;;;6223297;23;20024;-82
2022/10/02 08:03:20;;;;;;;2.15;1.10;;;13.40;99.90;;;;;;6220934;23;20000;-80
2022/10/02 08:05:48;;;;;;;4.35;1.30;;;13.50;99.90;;;;;;6215658;23;20149;-81
2022/10/02 08:08:22;;;;;;;2.97;1.00;;;13.60;99.90;;;;;;6222122;23;20001;-81
2022/10/02 08:10:54;;;;;;;5.10;1.77;;;13.60;99.90;;;;;;6225900;23;20435;-81
2022/10/02 08:13:41;;;;;;;;;;;13.70;99.90;;;;;;6223661;23;20003;-81
2022/10/02 08:16:09;;;;;;;4.32;1.40;;;13.70;99.90;;;;;;6222731;23;20306;-80
2022/10/02 08:18:37;;;;;;;2.20;1.20;;;13.70;99.90;;;;;;6222567;23;20056;-79
2022/10/02 08:21:11;;;;;;;3.55;1.10;;;13.70;99.90;;;;;;6220633;23;20001;-81
2022/10/02 08:24:00;;;;;;;5.32;1.50;;;13.80;99.90;;;;;;6221688;23;20004;-79
2022/10/02 08:26:29;;;;;;;4.13;1.25;;;13.80;99.90;;;;;;6224278;23;20431;-80
2022/10/02 08:29:33;;;;;;;4.97;1.25;;;13.80;99.90;;;;;;6228184;23;20005;-81
2022/10/02 08:31:59;;;;;;;3.55;1.10;;;13.80;99.90;;;;;;6173468;23;20017;-79
2022/10/02 08:34:26;;;;;;;2.95;1.00;;;13.90;99.90;;;;;;6200789;23;20068;-79
2022/10/02 08:37:09;;;;;;;3.08;0.80;;;13.90;99.90;;;;;;6222214;23;20000;-81
2022/10/02 08:39:41;;;;;;;3.05;1.15;;;13.90;99.90;;;;;;6222382;23;20332;-80
2022/10/02 08:42:31;;;;;;;4.60;1.33;;;13.90;99.90;;;;;;6196250;23;20004;-81
2022/10/02 08:45:34;;;;;;;2.55;0.90;;;13.90;99.90;;;;;;6224189;23;20411;-80
2022/10/02 08:48:33;;;;;;;1.48;0.90;;;14.00;99.90;;;;;;6225277;22;20004;-81
2022/10/02 08:51:36;;;;;;;2.35;0.90;;;14.20;99.90;;;;;;6196237;23;20402;-80
2022/10/02 08:54:14;;;;;;;1.33;0.80;;;14.40;99.90;;;;;;6196222;23;20444;-81
2022/10/02 08:57:04;;;;;;;2.35;1.13;;;14.50;99.90;;;;;;6225050;22;20040;-81
2022/10/02 09:00:02;;;;;;;1.67;0.88;;;14.50;99.90;;;;;;6223029;23;20001;-81
2022/10/02 09:02:43;;;;;;;0.93;0.93;;;14.50;99.90;;;;;;6222740;23;20020;-79
2022/10/02 09:05:38;;;;;;;1.27;0.75;;;14.40;99.90;;;;;;6223947;23;20011;-80
2022/10/02 09:08:41;;;;;;;2.20;0.80;;;14.40;99.90;;;;;;6222372;23;20372;-81
2022/10/02 09:11:06;;;;;;;2.20;1.10;;;14.40;99.90;;;;;;6222337;23;20052;-81
2022/10/02 09:13:53;;;;;;;1.50;0.80;;;14.40;99.90;;;;;;6227347;23;20439;-80
2022/10/02 09:16:43;;;;;;;1.40;0.90;;;14.50;99.90;;;;;;6222581;23;20076;-80
2022/10/02 09:19:30;;;;;;;5.85;1.55;;;14.70;99.90;;;;;;6195308;23;20087;-80
2022/10/02 09:22:37;;;;;;;2.05;0.90;;;14.70;99.90;;;;;;6222410;23;19996;-80
2022/10/02 09:25:25;;;;;;;2.75;1.48;;;14.80;99.90;;;;;;6209455;23;20383;-80
2022/10/02 09:28:25;;;;;;;1.23;0.90;;;14.90;99.90;;;;;;6223496;23;20023;-82
2022/10/02 09:31:18;;;;;;;1.08;0.80;;;15.10;99.90;;;;;;6223649;23;20050;-80
2022/10/02 09:33:58;;;;;;;1.30;0.77;;;15.20;99.90;;;;;;6222423;23;20005;-81
2022/10/02 09:36:49;;;;;;;1.33;0.90;;;15.40;99.90;;;;;;6224481;23;19997;-77
2022/10/02 09:39:54;;;;;;;1.60;0.85;;;15.70;99.90;;;;;;6240973;23;20011;-79
2022/10/02 09:42:29;;;;;;;1.02;0.80;;;15.80;99.90;;;;;;6230340;22;20005;-81
2022/10/02 09:45:49;;;;;;;3.03;0.93;;;15.80;99.90;;;;;;6223957;23;20335;-80
2022/10/02 09:48:41;;;;;;;0.88;0.60;;;15.80;99.90;;;;;;6129819;23;20068;-81
2022/10/02 09:51:29;;;;;;;2.47;1.17;;;15.80;99.90;;;;;;6220646;23;20008;-81
2022/10/02 09:54:08;;;;;;;1.73;0.90;;;15.90;99.90;;;;;;6221687;23;20051;-80
2022/10/02 09:56:52;;;;;;;2.95;1.55;;;15.90;99.90;;;;;;6223074;23;19997;-81
2022/10/02 09:59:27;;;;;;;2.45;1.75;;;16.00;99.90;;;;;;6224354;23;20011;-81
2022/10/02 10:02:08;;;;;;;2.50;1.77;;;16.10;99.90;;;;;;6198295;23;20000;-81
2022/10/02 10:04:52;;;;;;;2.58;1.77;;;16.20;99.90;;;;;;6223315;23;20001;-80
2022/10/02 10:07:26;;;;;;;3.33;1.55;;;16.30;99.90;;;;;;6224371;23;20053;-80
2022/10/02 10:10:24;;;;;;;1.75;1.50;;;16.40;99.90;;;;;;6225617;23;20001;-80
2022/10/02 10:13:31;;;;;;;1.65;1.20;;;16.50;99.90;;;;;;6192212;23;20004;-80
2022/10/02 10:16:47;;;;;;;1.98;1.15;;;16.60;99.90;;;;;;6171804;23;20011;-81
2022/10/02 10:19:50;;;;;;;1.60;1.30;;;16.70;99.90;;;;;;6188643;23;20020;-81
2022/10/02 10:22:47;;;;;;;2.50;1.33;;;16.80;99.90;;;;;;6176710;23;20065;-81
2022/10/02 10:25:54;;;;;;;2.28;1.42;;;16.80;99.90;;;;;;6199199;23;20060;-81
2022/10/02 10:28:42;;;;;;;2.63;1.27;;;16.80;99.90;;;;;;6198786;23;20091;-81
2022/10/02 10:31:22;;;;;;;1.23;1.10;;;16.70;99.90;;;;;;6223255;23;20392;-81
2022/10/02 10:34:03;;;;;;;2.50;1.10;;;16.70;99.90;;;;;;6223838;23;20015;-81
2022/10/02 10:40:13;;;;;;;3.50;1.30;;;16.90;99.90;;;;;;6228624;22;20027;-80
2022/10/02 10:43:17;;;;;;;1.70;1.27;;;17.10;99.90;;;;;;6225559;23;20005;-81
2022/10/02 10:46:09;;;;;;;1.25;0.88;;;17.30;99.90;;;;;;6226489;23;20011;-77
2022/10/02 10:48:44;;;;;;;;;;;17.40;99.90;;;;;;6237686;23;20028;-77
2022/10/02 10:51:29;;;;;;;1.42;1.08;;;17.60;99.90;;;;;;6240677;23;19979;-81
2022/10/02 10:54:16;;;;;;;2.47;0.90;;;17.70;99.90;;;;;;6237379;22;19997;-77
2022/10/02 10:56:53;;;;;;;3.08;1.17;;;17.80;99.70;;;;;;6216106;22;20024;-78
2022/10/02 10:59:48;;;;;;;0.88;0.88;;;18.10;99.20;;;;;;6199808;23;20327;-80
2022/10/02 11:02:35;;;;;;;1.90;1.10;;;18.60;98.90;;;;;;6221552;23;20031;-81
2022/10/02 11:05:41;;;;;;;1.00;0.70;;;19.50;95.50;;;;;;5077770;28;20383;-81
2022/10/02 11:08:22;;;;;;;1.92;1.40;;;19.90;94.80;;;;;;5073860;28;20055;-79
2022/10/02 11:10:59;;;;;;;2.13;1.40;;;20.00;93.40;;;;;;5088877;28;20077;-79
2022/10/02 11:13:42;;;;;;;1.50;1.13;;;19.80;93.50;;;;;;5090853;28;20081;-80
2022/10/02 11:16:30;;;;;;;2.00;1.23;;;19.50;93.80;;;;;;5072409;28;20083;-81
2022/10/02 11:19:40;;;;;;;1.30;1.02;;;19.30;94.70;;;;;;5060691;28;20093;-77
2022/10/02 11:22:33;;;;;;;2.22;1.10;;;19.30;95.00;;;;;;5052446;28;20029;-76
2022/10/02 11:25:24;;;;;;;0.80;0.80;;;19.00;95.10;;;;;;5062631;28;20037;-81
2022/10/02 11:28:25;;;;;;;1.02;0.90;;;18.90;95.60;;;;;;5077586;28;20035;-81
2022/10/02 11:31:01;;;;;;;1.25;0.93;;;18.90;95.90;;;;;;5077240;28;20039;-81
2022/10/02 11:33:30;;;;;;;0.70;0.70;;;19.10;96.00;;;;;;5079148;28;20035;-81
2022/10/02 11:36:23;;;;;;;0.60;0.60;;;19.60;93.40;;;;;;5076647;28;20020;-79
2022/10/02 11:39:13;;;;;;;2.63;1.10;;;20.00;91.90;;;;;;5056107;28;20028;-81
2022/10/02 11:41:58;;;;;;;2.65;0.90;;;20.40;91.20;;;;;;5055790;28;20066;-81
2022/10/02 11:45:03;;;;;;;1.67;1.10;;;20.70;90.30;;;;;;5061364;28;20060;-79
2022/10/02 11:47:46;;;;;;;0.82;0.70;;;21.10;88.60;;;;;;5065176;28;20021;-81
2022/10/02 11:50:49;;;;;;;0.98;0.68;;;21.20;85.30;;;;;;5076039;28;20025;-81
2022/10/02 11:53:35;;;;;;;9.70;0.70;;;21.00;85.00;;;;;;5078420;28;20033;-81
2022/10/02 11:56:20;;;;;;;0.60;0.60;;;20.90;84.30;;;;;;5076434;28;20473;-81
2022/10/02 11:58:45;;;;;;;0.40;0.40;;;20.90;84.60;;;;;;5058905;28;20029;-81
2022/10/02 12:01:31;;;;;;;1.55;0.50;;;20.80;84.80;;;;;;5056430;28;20072;-81
2022/10/02 12:04:24;;;;;;;1.40;0.60;;;20.80;84.30;;;;;;5055450;28;20033;-81
2022/10/02 12:07:17;;;;;;;0.63;0.30;;;20.80;84.20;;;;;;5063742;28;20056;-82
2022/10/02 12:09:53;;;;;;;0.75;0.60;;;20.80;83.70;;;;;;5055099;28;20033;-81
2022/10/02 12:12:21;;;;;;;0.50;0.45;;;20.70;84.40;;;;;;5056007;28;20055;-82
2022/10/02 12:15:32;;;;;;;0.60;0.45;;;20.50;85.00;;;;;;5057731;28;20017;-80
2022/10/02 12:18:21;;;;;;;0.40;0.40;;;20.30;85.10;;;;;;5064181;28;20040;-78
2022/10/02 12:27:15;;;;;;;1.08;0.65;;;19.80;88.50;;;;;;5066783;28;20127;-79
2022/10/02 12:29:52;;;;;;;0.40;0.40;;;19.90;87.80;;;;;;5055232;28;20034;-78
2022/10/02 12:32:39;;;;;;;0.65;0.50;;;20.10;87.30;;;;;;5057061;28;20032;-76
2022/10/02 12:35:25;;;;;;;1.10;0.52;;;20.30;86.20;;;;;;5047816;28;20044;-79
2022/10/02 12:38:18;;;;;;;0.90;0.43;;;20.50;84.90;;;;;;5045323;28;20025;-80
2022/10/02 12:41:14;;;;;;;0.70;0.45;;;20.60;83.70;;;;;;5054065;28;20025;-81
2022/10/02 12:44:04;;;;;;;1.63;0.50;;;20.50;84.60;;;;;;5058678;28;20067;-78
2022/10/02 12:46:58;;;;;;;4.25;0.70;;;20.50;84.40;;;;;;5050179;28;20282;-80
2022/10/02 12:49:34;;;;;;;1.40;0.73;;;20.40;85.00;;;;;;5052072;28;20032;-81
2022/10/02 12:52:22;;;;;;;0.50;0.50;;;20.40;86.20;;;;;;5065080;28;20035;-80
2022/10/02 12:55:30;;;;;;;0.70;0.70;;;20.50;85.30;;;;;;5073676;28;20051;-76
2022/10/02 12:58:22;;;;;;;0.52;0.40;;;21.00;83.90;;;;;;5076532;28;20063;-77
2022/10/02 13:01:09;;;;;;;0.73;0.40;;;21.10;81.90;;;;;;5061683;28;20030;-78
2022/10/02 13:03:47;;;;;;;1.38;1.02;;;21.20;82.50;;;;;;5058315;28;20112;-77
2022/10/02 13:06:41;;;;;;;1.52;0.90;;;21.10;81.70;;;;;;5057015;28;20005;-80
2022/10/02 13:09:12;;;;;;;0.70;0.50;;;20.80;82.50;;;;;;5050563;28;20084;-81
2022/10/02 13:12:04;;;;;;;0.95;0.60;;;20.50;83.80;;;;;;5045092;28;20109;-80
2022/10/02 13:14:51;;;;;;;0.40;0.40;;;20.20;85.70;;;;;;5041263;28;20581;-80
2022/10/02 13:17:34;;;;;;;0.60;0.60;;;20.00;87.20;;;;;;5039391;28;20396;-76
2022/10/02 13:20:39;;;;;;;0.55;0.55;;;20.10;86.70;;;;;;5045249;28;20031;-80
2022/10/02 13:23:40;;;;;;;3.33;0.80;;;20.20;86.40;;;;;;5060454;28;20036;-81
2022/10/02 13:26:14;;;;;;;4.50;0.90;;;20.10;86.60;;;;;;5060565;28;20541;-80
2022/10/02 13:29:18;;;;;;;2.05;1.30;;;19.50;89.10;;;;;;5059660;28;20117;-81
2022/10/02 13:32:02;;;;;;;1.90;1.00;;;18.80;92.90;;;;;;5047683;28;20120;-81
2022/10/02 13:35:02;;;;;;;2.53;1.35;;;17.30;97.90;;;;;;5040672;28;20105;-81
2022/10/02 13:37:38;;;;;;;1.10;0.85;;;15.90;99.90;;;;;;5040928;28;20044;-81
2022/10/02 13:40:22;;;;;;;8.55;2.42;;;14.20;99.90;;;;;;5040877;28;20026;-82
2022/10/02 13:43:19;;;;;;;4.18;1.98;;;13.50;99.90;;;;;;5039073;28;20180;-82
2022/10/02 13:46:12;;;;;;;4.68;1.73;;;13.30;99.90;;;;;;5036542;28;20506;-83
2022/10/02 13:48:55;;;;;;;2.22;1.48;;;13.10;99.90;;;;;;5041440;28;20036;-83
2022/10/02 13:51:37;;;;;;;1.88;1.27;;;13.10;99.90;;;;;;5039710;28;20021;-81
2022/10/02 13:54:15;;;;;;;1.50;1.40;;;12.90;99.90;;;;;;5040417;28;20056;-81
2022/10/02 13:57:02;;;;;;;1.60;1.50;;;12.80;99.90;;;;;;5038737;28;20164;-82
2022/10/02 13:59:52;;;;;;;1.80;1.35;;;12.80;99.90;;;;;;5040757;28;20061;-82
2022/10/02 14:02:33;;;;;;;1.50;1.33;;;12.70;99.90;;;;;;5052836;28;20167;-82
2022/10/02 14:05:13;;;;;;;2.05;1.38;;;12.70;99.90;;;;;;5060404;28;20039;-80
2022/10/02 14:08:13;;;;;;;1.23;1.13;;;12.70;99.90;;;;;;5062098;28;20036;-81
2022/10/02 14:11:03;;;;;;;1.52;1.38;;;12.70;99.90;;;;;;5062132;28;20405;-81
2022/10/02 14:13:50;;;;;;;1.48;1.10;;;12.60;99.90;;;;;;5045087;28;20107;-82
2022/10/02 14:16:18;;;;;;;1.67;1.30;;;12.60;99.90;;;;;;5041417;28;20025;-82
2022/10/02 14:19:01;;;;;;;1.20;1.05;;;12.70;99.90;;;;;;5040261;28;20038;-82
2022/10/02 14:22:01;;;;;;;1.35;1.25;;;12.70;99.90;;;;;;5041190;28;20021;-81